sensor_id;sensor_type;location;lat;lon;timestamp;temperature;humidity
13211;DHT22;6670;51.53087800;7.23266500;2023-02-08T00:01:13;1.20;99.90
13211;DHT22;6670;51.53087800;7.23266500;2023-02-08T00:03:40;1.10;99.90
13211;DHT22;6670;51.53087800;7.23266500;2023-02-08T00:06:08;1.00;99.90
13211;DHT22;6670;51.53087800;7.23266500;2023-02-08T00:08:36;1.10;99.90
13211;DHT22;6670;51.53087800;7.23266500;2023-02-08T00:11:05;1.10;99.90
13211;DHT22;6670;51.53087800;7.23266500;2023-02-08T00:13:37;1.10;99.90
13211;DHT22;6670;51.53087800;7.23266500;2023-02-08T00:16:07;0.90;99.90
13211;DHT22;6670;51.53087800;7.23266500;2023-02-08T00:18:34;0.90;99.90
13211;DHT22;6670;51.53087800;7.23266500;2023-02-08T00:21:07;0.90;99.90
13211;DHT22;6670;51.53087800;7.23266500;2023-02-08T00:23:34;1.00;99.90
13211;DHT22;6670;51.53087800;7.23266500;2023-02-08T00:26:02;1.00;99.90
13211;DHT22;6670;51.53087800;7.23266500;2023-02-08T00:28:29;0.90;99.90
13211;DHT22;6670;51.53087800;7.23266500;2023-02-08T00:30:57;0.90;99.90
13211;DHT22;6670;51.53087800;7.23266500;2023-02-08T00:33:25;0.90;99.90
13211;DHT22;6670;51.53087800;7.23266500;2023-02-08T00:35:57;0.90;99.90
13211;DHT22;6670;51.53087800;7.23266500;2023-02-08T00:38:24;0.80;99.90
13211;DHT22;6670;51.53087800;7.23266500;2023-02-08T00:40:52;0.90;99.90
13211;DHT22;6670;51.53087800;7.23266500;2023-02-08T00:43:19;0.90;99.90
13211;DHT22;6670;51.53087800;7.23266500;2023-02-08T00:45:47;0.90;99.90
13211;DHT22;6670;51.53087800;7.23266500;2023-02-08T00:48:19;0.90;99.90
13211;DHT22;6670;51.53087800;7.23266500;2023-02-08T00:50:57;0.80;99.90
13211;DHT22;6670;51.53087800;7.23266500;2023-02-08T00:53:25;0.80;99.90
13211;DHT22;6670;51.53087800;7.23266500;2023-02-08T00:55:53;0.80;99.90
13211;DHT22;6670;51.53087800;7.23266500;2023-02-08T00:58:20;0.80;99.90
13211;DHT22;6670;51.53087800;7.23266500;2023-02-08T01:00:49;0.80;99.90
13211;DHT22;6670;51.53087800;7.23266500;2023-02-08T01:03:17;0.80;99.90
13211;DHT22;6670;51.53087800;7.23266500;2023-02-08T01:05:45;0.80;99.90
13211;DHT22;6670;51.53087800;7.23266500;2023-02-08T01:08:14;0.70;99.90
13211;DHT22;6670;51.53087800;7.23266500;2023-02-08T01:10:41;0.70;99.90
13211;DHT22;6670;51.53087800;7.23266500;2023-02-08T01:13:09;0.60;99.90
13211;DHT22;6670;51.53087800;7.23266500;2023-02-08T01:15:37;0.60;99.90
13211;DHT22;6670;51.53087800;7.23266500;2023-02-08T01:18:04;0.40;99.90
13211;DHT22;6670;51.53087800;7.23266500;2023-02-08T01:20:34;0.40;99.90
13211;DHT22;6670;51.53087800;7.23266500;2023-02-08T01:23:03;0.50;99.90
13211;DHT22;6670;51.53087800;7.23266500;2023-02-08T01:25:33;0.40;99.90
13211;DHT22;6670;51.53087800;7.23266500;2023-02-08T01:28:01;0.30;99.90
13211;DHT22;6670;51.53087800;7.23266500;2023-02-08T01:30:28;0.00;99.90
13211;DHT22;6670;51.53087800;7.23266500;2023-02-08T01:32:55;0.30;99.90
13211;DHT22;6670;51.53087800;7.23266500;2023-02-08T01:35:23;0.50;99.90
13211;DHT22;6670;51.53087800;7.23266500;2023-02-08T01:37:50;0.60;99.90
13211;DHT22;6670;51.53087800;7.23266500;2023-02-08T01:40:49;0.60;99.90
13211;DHT22;6670;51.53087800;7.23266500;2023-02-08T01:43:21;0.60;99.90
13211;DHT22;6670;51.53087800;7.23266500;2023-02-08T01:45:49;0.50;99.90
13211;DHT22;6670;51.53087800;7.23266500;2023-02-08T01:48:20;0.50;99.90
13211;DHT22;6670;51.53087800;7.23266500;2023-02-08T01:50:51;0.40;99.90
13211;DHT22;6670;51.53087800;7.23266500;2023-02-08T01:53:22;0.40;99.90
13211;DHT22;6670;51.53087800;7.23266500;2023-02-08T01:55:54;0.40;99.90
13211;DHT22;6670;51.53087800;7.23266500;2023-02-08T01:58:23;0.30;99.90
13211;DHT22;6670;51.53087800;7.23266500;2023-02-08T02:00:52;0.40;99.90
13211;DHT22;6670;51.53087800;7.23266500;2023-02-08T02:03:21;0.30;99.90
13211;DHT22;6670;51.53087800;7.23266500;2023-02-08T02:05:53;0.40;99.90
13211;DHT22;6670;51.53087800;7.23266500;2023-02-08T02:08:22;0.50;99.90
13211;DHT22;6670;51.53087800;7.23266500;2023-02-08T02:10:49;0.50;99.90
13211;DHT22;6670;51.53087800;7.23266500;2023-02-08T02:13:19;0.50;99.90
13211;DHT22;6670;51.53087800;7.23266500;2023-02-08T02:15:48;0.40;99.90
13211;DHT22;6670;51.53087800;7.23266500;2023-02-08T02:18:19;0.40;99.90
13211;DHT22;6670;51.53087800;7.23266500;2023-02-08T02:24:04;0.60;99.90
13211;DHT22;6670;51.53087800;7.23266500;2023-02-08T02:33:34;0.60;99.90
13211;DHT22;6670;51.53087800;7.23266500;2023-02-08T02:36:09;0.70;99.90
13211;DHT22;6670;51.53087800;7.23266500;2023-02-08T02:38:51;0.60;99.90
13211;DHT22;6670;51.53087800;7.23266500;2023-02-08T02:41:28;0.40;99.90
13211;DHT22;6670;51.53087800;7.23266500;2023-02-08T02:44:22;0.30;99.90
13211;DHT22;6670;51.53087800;7.23266500;2023-02-08T02:46:57;0.40;99.90
13211;DHT22;6670;51.53087800;7.23266500;2023-02-08T02:49:31;0.40;99.90
13211;DHT22;6670;51.53087800;7.23266500;2023-02-08T02:52:04;0.40;99.90
13211;DHT22;6670;51.53087800;7.23266500;2023-02-08T02:54:36;0.30;99.90
13211;DHT22;6670;51.53087800;7.23266500;2023-02-08T02:57:07;0.40;99.90
13211;DHT22;6670;51.53087800;7.23266500;2023-02-08T02:59:37;0.50;99.90
13211;DHT22;6670;51.53087800;7.23266500;2023-02-08T03:02:05;0.60;99.90
13211;DHT22;6670;51.53087800;7.23266500;2023-02-08T03:04:49;0.70;99.90
13211;DHT22;6670;51.53087800;7.23266500;2023-02-08T03:07:44;0.80;99.90
13211;DHT22;6670;51.53087800;7.23266500;2023-02-08T03:10:32;0.80;99.90
13211;DHT22;6670;51.53087800;7.23266500;2023-02-08T03:13:08;0.80;99.90
13211;DHT22;6670;51.53087800;7.23266500;2023-02-08T03:19:03;0.60;99.90
13211;DHT22;6670;51.53087800;7.23266500;2023-02-08T03:21:39;0.60;99.90
13211;DHT22;6670;51.53087800;7.23266500;2023-02-08T03:24:17;0.30;99.90
13211;DHT22;6670;51.53087800;7.23266500;2023-02-08T03:26:53;0.30;99.90
13211;DHT22;6670;51.53087800;7.23266500;2023-02-08T03:29:30;0.10;99.90
13211;DHT22;6670;51.53087800;7.23266500;2023-02-08T03:32:04;0.20;99.90
13211;DHT22;6670;51.53087800;7.23266500;2023-02-08T03:34:40;0.30;99.90
13211;DHT22;6670;51.53087800;7.23266500;2023-02-08T03:37:13;0.30;99.90
13211;DHT22;6670;51.53087800;7.23266500;2023-02-08T03:39:42;0.30;99.90
13211;DHT22;6670;51.53087800;7.23266500;2023-02-08T03:42:14;0.10;99.90
13211;DHT22;6670;51.53087800;7.23266500;2023-02-08T03:44:45;0.20;99.90
13211;DHT22;6670;51.53087800;7.23266500;2023-02-08T03:47:20;0.30;99.90
13211;DHT22;6670;51.53087800;7.23266500;2023-02-08T03:49:50;0.20;99.90
13211;DHT22;6670;51.53087800;7.23266500;2023-02-08T03:52:20;0.20;99.90
13211;DHT22;6670;51.53087800;7.23266500;2023-02-08T03:54:51;0.20;99.90
13211;DHT22;6670;51.53087800;7.23266500;2023-02-08T03:57:21;0.10;99.90
13211;DHT22;6670;51.53087800;7.23266500;2023-02-08T03:59:54;0.10;99.90
13211;DHT22;6670;51.53087800;7.23266500;2023-02-08T04:02:24;0.10;99.90
13211;DHT22;6670;51.53087800;7.23266500;2023-02-08T04:04:53;0.00;99.90
13211;DHT22;6670;51.53087800;7.23266500;2023-02-08T04:07:23;-0.10;99.90
13211;DHT22;6670;51.53087800;7.23266500;2023-02-08T04:09:50;-0.20;99.90
13211;DHT22;6670;51.53087800;7.23266500;2023-02-08T04:12:18;-0.30;99.90
13211;DHT22;6670;51.53087800;7.23266500;2023-02-08T04:14:45;-0.30;99.90
13211;DHT22;6670;51.53087800;7.23266500;2023-02-08T04:17:12;-0.40;99.90
13211;DHT22;6670;51.53087800;7.23266500;2023-02-08T04:19:40;-0.40;99.90
13211;DHT22;6670;51.53087800;7.23266500;2023-02-08T04:22:07;-0.30;99.90
13211;DHT22;6670;51.53087800;7.23266500;2023-02-08T04:24:36;-0.20;99.90
13211;DHT22;6670;51.53087800;7.23266500;2023-02-08T04:27:04;-0.10;99.90
13211;DHT22;6670;51.53087800;7.23266500;2023-02-08T04:29:31;-0.10;99.90
13211;DHT22;6670;51.53087800;7.23266500;2023-02-08T04:31:59;-0.10;99.90
13211;DHT22;6670;51.53087800;7.23266500;2023-02-08T04:34:27;-0.10;99.90
13211;DHT22;6670;51.53087800;7.23266500;2023-02-08T04:36:54;-0.10;99.90
13211;DHT22;6670;51.53087800;7.23266500;2023-02-08T04:39:22;-0.20;99.90
13211;DHT22;6670;51.53087800;7.23266500;2023-02-08T04:41:50;-0.20;99.90
13211;DHT22;6670;51.53087800;7.23266500;2023-02-08T04:44:18;-0.20;99.90
13211;DHT22;6670;51.53087800;7.23266500;2023-02-08T04:46:45;-0.20;99.90
13211;DHT22;6670;51.53087800;7.23266500;2023-02-08T04:49:13;-0.40;99.90
13211;DHT22;6670;51.53087800;7.23266500;2023-02-08T04:51:40;-0.40;99.90
13211;DHT22;6670;51.53087800;7.23266500;2023-02-08T04:54:07;-0.40;99.90
13211;DHT22;6670;51.53087800;7.23266500;2023-02-08T04:56:35;-0.40;99.90
13211;DHT22;6670;51.53087800;7.23266500;2023-02-08T04:59:04;-0.40;99.90
13211;DHT22;6670;51.53087800;7.23266500;2023-02-08T05:01:31;-0.40;99.90
13211;DHT22;6670;51.53087800;7.23266500;2023-02-08T05:03:58;-0.30;99.90
13211;DHT22;6670;51.53087800;7.23266500;2023-02-08T05:06:26;-0.40;99.90
13211;DHT22;6670;51.53087800;7.23266500;2023-02-08T05:08:53;-0.40;99.90
13211;DHT22;6670;51.53087800;7.23266500;2023-02-08T05:11:22;-0.40;99.90
13211;DHT22;6670;51.53087800;7.23266500;2023-02-08T05:13:50;-0.40;99.90
13211;DHT22;6670;51.53087800;7.23266500;2023-02-08T05:16:19;-0.40;99.90
13211;DHT22;6670;51.53087800;7.23266500;2023-02-08T05:18:46;-0.40;99.90
13211;DHT22;6670;51.53087800;7.23266500;2023-02-08T05:21:17;-0.60;99.90
13211;DHT22;6670;51.53087800;7.23266500;2023-02-08T05:23:44;-0.60;99.90
13211;DHT22;6670;51.53087800;7.23266500;2023-02-08T05:26:11;-0.50;99.90
13211;DHT22;6670;51.53087800;7.23266500;2023-02-08T05:28:39;-0.50;99.90
13211;DHT22;6670;51.53087800;7.23266500;2023-02-08T05:31:11;-0.50;99.90
13211;DHT22;6670;51.53087800;7.23266500;2023-02-08T05:33:40;-0.30;99.90
13211;DHT22;6670;51.53087800;7.23266500;2023-02-08T05:36:08;-0.50;99.90
13211;DHT22;6670;51.53087800;7.23266500;2023-02-08T05:38:35;-0.50;99.90
13211;DHT22;6670;51.53087800;7.23266500;2023-02-08T05:41:03;-0.50;99.90
13211;DHT22;6670;51.53087800;7.23266500;2023-02-08T05:43:30;-0.40;99.90
13211;DHT22;6670;51.53087800;7.23266500;2023-02-08T05:45:58;-0.30;99.90
13211;DHT22;6670;51.53087800;7.23266500;2023-02-08T05:48:25;-0.50;99.90
13211;DHT22;6670;51.53087800;7.23266500;2023-02-08T05:50:54;-0.50;99.90
13211;DHT22;6670;51.53087800;7.23266500;2023-02-08T05:53:22;-0.40;99.90
13211;DHT22;6670;51.53087800;7.23266500;2023-02-08T05:55:49;-0.40;99.90
13211;DHT22;6670;51.53087800;7.23266500;2023-02-08T05:58:17;-0.20;99.90
13211;DHT22;6670;51.53087800;7.23266500;2023-02-08T06:00:44;-0.30;99.90
13211;DHT22;6670;51.53087800;7.23266500;2023-02-08T06:03:12;-0.40;99.90
13211;DHT22;6670;51.53087800;7.23266500;2023-02-08T06:05:40;-0.40;99.90
13211;DHT22;6670;51.53087800;7.23266500;2023-02-08T06:08:09;-0.40;99.90
13211;DHT22;6670;51.53087800;7.23266500;2023-02-08T06:10:36;-0.60;99.90
13211;DHT22;6670;51.53087800;7.23266500;2023-02-08T06:13:03;-0.70;99.90
13211;DHT22;6670;51.53087800;7.23266500;2023-02-08T06:15:31;-0.70;99.90
13211;DHT22;6670;51.53087800;7.23266500;2023-02-08T06:17:58;-0.50;99.90
13211;DHT22;6670;51.53087800;7.23266500;2023-02-08T06:20:25;-0.50;99.90
13211;DHT22;6670;51.53087800;7.23266500;2023-02-08T06:22:54;-0.50;99.90
13211;DHT22;6670;51.53087800;7.23266500;2023-02-08T06:25:23;-0.30;99.90
13211;DHT22;6670;51.53087800;7.23266500;2023-02-08T06:27:50;0.20;99.90
13211;DHT22;6670;51.53087800;7.23266500;2023-02-08T06:30:18;0.80;99.90
13211;DHT22;6670;51.53087800;7.23266500;2023-02-08T06:32:46;0.90;99.90
13211;DHT22;6670;51.53087800;7.23266500;2023-02-08T06:35:14;0.80;99.90
13211;DHT22;6670;51.53087800;7.23266500;2023-02-08T06:37:41;0.50;99.90
13211;DHT22;6670;51.53087800;7.23266500;2023-02-08T06:40:23;0.50;99.90
13211;DHT22;6670;51.53087800;7.23266500;2023-02-08T06:43:00;0.60;99.90
13211;DHT22;6670;51.53087800;7.23266500;2023-02-08T06:45:27;0.40;99.90
13211;DHT22;6670;51.53087800;7.23266500;2023-02-08T06:47:55;0.30;99.90
13211;DHT22;6670;51.53087800;7.23266500;2023-02-08T06:50:22;-0.10;99.90
13211;DHT22;6670;51.53087800;7.23266500;2023-02-08T06:53:12;-0.40;99.90
13211;DHT22;6670;51.53087800;7.23266500;2023-02-08T06:55:46;-0.70;99.90
13211;DHT22;6670;51.53087800;7.23266500;2023-02-08T06:58:14;-0.70;99.90
13211;DHT22;6670;51.53087800;7.23266500;2023-02-08T07:00:42;-0.60;99.90
13211;DHT22;6670;51.53087800;7.23266500;2023-02-08T07:03:11;-0.70;99.90
13211;DHT22;6670;51.53087800;7.23266500;2023-02-08T07:05:41;-0.60;99.90
13211;DHT22;6670;51.53087800;7.23266500;2023-02-08T07:08:09;-0.70;99.90
13211;DHT22;6670;51.53087800;7.23266500;2023-02-08T07:10:37;-0.70;99.90
13211;DHT22;6670;51.53087800;7.23266500;2023-02-08T07:13:06;-0.80;99.90
13211;DHT22;6670;51.53087800;7.23266500;2023-02-08T07:15:34;-0.80;99.90
13211;DHT22;6670;51.53087800;7.23266500;2023-02-08T07:18:01;-0.90;99.90
13211;DHT22;6670;51.53087800;7.23266500;2023-02-08T07:20:32;-0.70;99.90
13211;DHT22;6670;51.53087800;7.23266500;2023-02-08T07:22:59;-0.60;99.90
13211;DHT22;6670;51.53087800;7.23266500;2023-02-08T07:25:27;-0.60;99.90
13211;DHT22;6670;51.53087800;7.23266500;2023-02-08T07:28:14;-0.70;99.90
13211;DHT22;6670;51.53087800;7.23266500;2023-02-08T07:30:42;-0.20;99.90
13211;DHT22;6670;51.53087800;7.23266500;2023-02-08T07:33:09;-0.30;99.90
13211;DHT22;6670;51.53087800;7.23266500;2023-02-08T07:35:37;-0.50;99.90
13211;DHT22;6670;51.53087800;7.23266500;2023-02-08T07:38:09;-0.70;99.90
13211;DHT22;6670;51.53087800;7.23266500;2023-02-08T07:40:37;-0.70;99.90
13211;DHT22;6670;51.53087800;7.23266500;2023-02-08T07:43:04;-0.70;99.90
13211;DHT22;6670;51.53087800;7.23266500;2023-02-08T07:45:45;-0.60;99.90
13211;DHT22;6670;51.53087800;7.23266500;2023-02-08T07:48:13;-0.50;99.90
13211;DHT22;6670;51.53087800;7.23266500;2023-02-08T07:50:40;-0.50;99.90
13211;DHT22;6670;51.53087800;7.23266500;2023-02-08T07:53:08;-0.30;99.90
13211;DHT22;6670;51.53087800;7.23266500;2023-02-08T07:58:43;-0.10;99.90
13211;DHT22;6670;51.53087800;7.23266500;2023-02-08T08:01:12;-0.10;99.90
13211;DHT22;6670;51.53087800;7.23266500;2023-02-08T08:03:40;0.00;99.90
13211;DHT22;6670;51.53087800;7.23266500;2023-02-08T08:06:07;0.10;99.90
13211;DHT22;6670;51.53087800;7.23266500;2023-02-08T08:08:34;0.20;99.90
13211;DHT22;6670;51.53087800;7.23266500;2023-02-08T08:11:02;0.20;99.90
13211;DHT22;6670;51.53087800;7.23266500;2023-02-08T08:13:29;0.20;99.90
13211;DHT22;6670;51.53087800;7.23266500;2023-02-08T08:15:57;0.30;99.90
13211;DHT22;6670;51.53087800;7.23266500;2023-02-08T08:18:26;0.30;99.90
13211;DHT22;6670;51.53087800;7.23266500;2023-02-08T08:20:54;0.40;99.90
13211;DHT22;6670;51.53087800;7.23266500;2023-02-08T08:23:22;0.30;99.90
13211;DHT22;6670;51.53087800;7.23266500;2023-02-08T08:25:49;0.30;99.90
13211;DHT22;6670;51.53087800;7.23266500;2023-02-08T08:28:22;0.20;99.90
13211;DHT22;6670;51.53087800;7.23266500;2023-02-08T08:31:08;0.40;99.90
13211;DHT22;6670;51.53087800;7.23266500;2023-02-08T08:33:37;0.40;99.90
13211;DHT22;6670;51.53087800;7.23266500;2023-02-08T08:36:05;0.60;99.90
13211;DHT22;6670;51.53087800;7.23266500;2023-02-08T08:38:33;0.70;99.90
13211;DHT22;6670;51.53087800;7.23266500;2023-02-08T08:41:06;0.90;99.90
13211;DHT22;6670;51.53087800;7.23266500;2023-02-08T08:43:33;0.90;99.90
13211;DHT22;6670;51.53087800;7.23266500;2023-02-08T08:46:01;1.00;99.90
13211;DHT22;6670;51.53087800;7.23266500;2023-02-08T08:48:28;1.20;99.90
13211;DHT22;6670;51.53087800;7.23266500;2023-02-08T08:50:57;1.20;99.90
13211;DHT22;6670;51.53087800;7.23266500;2023-02-08T08:53:24;1.40;99.90
13211;DHT22;6670;51.53087800;7.23266500;2023-02-08T08:55:52;1.50;99.90
13211;DHT22;6670;51.53087800;7.23266500;2023-02-08T08:58:19;1.50;99.90
13211;DHT22;6670;51.53087800;7.23266500;2023-02-08T09:00:46;1.70;99.90
13211;DHT22;6670;51.53087800;7.23266500;2023-02-08T09:03:24;1.70;99.90
13211;DHT22;6670;51.53087800;7.23266500;2023-02-08T09:05:51;1.90;99.90
13211;DHT22;6670;51.53087800;7.23266500;2023-02-08T09:08:20;1.90;99.90
13211;DHT22;6670;51.53087800;7.23266500;2023-02-08T09:10:47;2.10;99.90
13211;DHT22;6670;51.53087800;7.23266500;2023-02-08T09:13:21;2.20;99.90
13211;DHT22;6670;51.53087800;7.23266500;2023-02-08T09:15:56;2.40;99.90
13211;DHT22;6670;51.53087800;7.23266500;2023-02-08T09:18:31;2.50;99.90
13211;DHT22;6670;51.53087800;7.23266500;2023-02-08T09:21:04;2.60;99.90
13211;DHT22;6670;51.53087800;7.23266500;2023-02-08T09:23:33;2.80;99.90
13211;DHT22;6670;51.53087800;7.23266500;2023-02-08T09:26:01;2.90;99.90
13211;DHT22;6670;51.53087800;7.23266500;2023-02-08T09:28:29;3.00;99.90
13211;DHT22;6670;51.53087800;7.23266500;2023-02-08T09:30:56;3.10;99.90
13211;DHT22;6670;51.53087800;7.23266500;2023-02-08T09:33:26;3.30;99.40
13211;DHT22;6670;51.53087800;7.23266500;2023-02-08T09:35:53;3.40;96.80
13211;DHT22;6670;51.53087800;7.23266500;2023-02-08T09:38:21;3.50;95.40
13211;DHT22;6670;51.53087800;7.23266500;2023-02-08T09:41:01;3.60;94.00
13211;DHT22;6670;51.53087800;7.23266500;2023-02-08T09:43:34;3.80;94.20
13211;DHT22;6670;51.53087800;7.23266500;2023-02-08T09:46:10;3.90;93.10
13211;DHT22;6670;51.53087800;7.23266500;2023-02-08T09:48:42;4.00;92.10
13211;DHT22;6670;51.53087800;7.23266500;2023-02-08T09:51:18;4.10;90.80
13211;DHT22;6670;51.53087800;7.23266500;2023-02-08T09:53:52;4.20;90.60
13211;DHT22;6670;51.53087800;7.23266500;2023-02-08T09:56:26;4.30;89.20
13211;DHT22;6670;51.53087800;7.23266500;2023-02-08T09:58:56;4.60;90.00
13211;DHT22;6670;51.53087800;7.23266500;2023-02-08T10:01:27;4.80;87.90
13211;DHT22;6670;51.53087800;7.23266500;2023-02-08T10:03:58;4.90;92.50
13211;DHT22;6670;51.53087800;7.23266500;2023-02-08T10:06:26;4.90;95.10
13211;DHT22;6670;51.53087800;7.23266500;2023-02-08T10:08:58;5.00;94.90
13211;DHT22;6670;51.53087800;7.23266500;2023-02-08T10:11:42;5.10;94.60
13211;DHT22;6670;51.53087800;7.23266500;2023-02-08T10:14:30;5.10;93.80
13211;DHT22;6670;51.53087800;7.23266500;2023-02-08T10:17:14;5.10;94.40
13211;DHT22;6670;51.53087800;7.23266500;2023-02-08T10:19:59;5.20;94.70
13211;DHT22;6670;51.53087800;7.23266500;2023-02-08T10:22:36;5.20;92.80
13211;DHT22;6670;51.53087800;7.23266500;2023-02-08T10:25:36;5.40;92.40
13211;DHT22;6670;51.53087800;7.23266500;2023-02-08T10:28:19;5.60;88.60
13211;DHT22;6670;51.53087800;7.23266500;2023-02-08T10:30:54;5.60;85.50
13211;DHT22;6670;51.53087800;7.23266500;2023-02-08T10:33:27;5.70;79.90
13211;DHT22;6670;51.53087800;7.23266500;2023-02-08T10:35:58;5.70;77.50
13211;DHT22;6670;51.53087800;7.23266500;2023-02-08T10:38:41;5.80;76.00
13211;DHT22;6670;51.53087800;7.23266500;2023-02-08T10:41:14;5.90;74.10
13211;DHT22;6670;51.53087800;7.23266500;2023-02-08T10:43:47;6.10;75.70
13211;DHT22;6670;51.53087800;7.23266500;2023-02-08T10:49:28;6.30;74.80
13211;DHT22;6670;51.53087800;7.23266500;2023-02-08T10:52:00;6.50;72.80
13211;DHT22;6670;51.53087800;7.23266500;2023-02-08T10:54:28;6.70;70.40
13211;DHT22;6670;51.53087800;7.23266500;2023-02-08T10:56:57;6.80;69.60
13211;DHT22;6670;51.53087800;7.23266500;2023-02-08T10:59:31;6.90;66.60
13211;DHT22;6670;51.53087800;7.23266500;2023-02-08T11:01:59;7.00;65.40
13211;DHT22;6670;51.53087800;7.23266500;2023-02-08T11:04:27;7.00;63.70
13211;DHT22;6670;51.53087800;7.23266500;2023-02-08T11:06:54;7.30;61.90
13211;DHT22;6670;51.53087800;7.23266500;2023-02-08T11:09:24;7.80;59.50
13211;DHT22;6670;51.53087800;7.23266500;2023-02-08T11:11:53;8.20;57.40
13211;DHT22;6670;51.53087800;7.23266500;2023-02-08T11:14:24;8.30;52.40
13211;DHT22;6670;51.53087800;7.23266500;2023-02-08T11:17:01;8.70;51.90
13211;DHT22;6670;51.53087800;7.23266500;2023-02-08T11:19:33;8.90;50.10
13211;DHT22;6670;51.53087800;7.23266500;2023-02-08T11:22:01;9.40;46.90
13211;DHT22;6670;51.53087800;7.23266500;2023-02-08T11:24:33;9.70;44.80
13211;DHT22;6670;51.53087800;7.23266500;2023-02-08T11:27:16;9.80;40.50
13211;DHT22;6670;51.53087800;7.23266500;2023-02-08T11:30:08;9.70;39.40
13211;DHT22;6670;51.53087800;7.23266500;2023-02-08T11:32:38;10.30;36.90
13211;DHT22;6670;51.53087800;7.23266500;2023-02-08T11:35:12;10.60;36.50
13211;DHT22;6670;51.53087800;7.23266500;2023-02-08T11:37:46;10.50;33.90
13211;DHT22;6670;51.53087800;7.23266500;2023-02-08T11:40:17;10.40;34.10
13211;DHT22;6670;51.53087800;7.23266500;2023-02-08T11:42:46;10.10;31.10
13211;DHT22;6670;51.53087800;7.23266500;2023-02-08T11:45:20;10.60;32.10
13211;DHT22;6670;51.53087800;7.23266500;2023-02-08T11:47:54;11.60;32.40
13211;DHT22;6670;51.53087800;7.23266500;2023-02-08T11:50:24;11.70;31.00
13211;DHT22;6670;51.53087800;7.23266500;2023-02-08T11:52:56;11.90;30.70
13211;DHT22;6670;51.53087800;7.23266500;2023-02-08T11:55:27;12.20;29.90
13211;DHT22;6670;51.53087800;7.23266500;2023-02-08T11:57:57;12.30;29.30
13211;DHT22;6670;51.53087800;7.23266500;2023-02-08T12:00:28;12.30;29.30
13211;DHT22;6670;51.53087800;7.23266500;2023-02-08T12:03:12;11.70;27.50
13211;DHT22;6670;51.53087800;7.23266500;2023-02-08T12:05:50;12.00;29.40
13211;DHT22;6670;51.53087800;7.23266500;2023-02-08T12:08:23;12.60;28.40
13211;DHT22;6670;51.53087800;7.23266500;2023-02-08T12:11:10;12.70;27.80
13211;DHT22;6670;51.53087800;7.23266500;2023-02-08T12:14:16;13.30;28.00
13211;DHT22;6670;51.53087800;7.23266500;2023-02-08T12:20:11;12.40;25.50
13211;DHT22;6670;51.53087800;7.23266500;2023-02-08T12:22:42;13.30;27.30
13211;DHT22;6670;51.53087800;7.23266500;2023-02-08T12:25:22;14.20;27.30
13211;DHT22;6670;51.53087800;7.23266500;2023-02-08T12:27:57;14.60;25.40
13211;DHT22;6670;51.53087800;7.23266500;2023-02-08T12:30:32;15.10;25.30
13211;DHT22;6670;51.53087800;7.23266500;2023-02-08T12:33:17;15.30;25.20
13211;DHT22;6670;51.53087800;7.23266500;2023-02-08T12:36:17;14.70;23.10
13211;DHT22;6670;51.53087800;7.23266500;2023-02-08T12:42:17;15.10;25.20
13211;DHT22;6670;51.53087800;7.23266500;2023-02-08T12:45:03;15.10;24.40
13211;DHT22;6670;51.53087800;7.23266500;2023-02-08T12:47:43;15.10;24.20
13211;DHT22;6670;51.53087800;7.23266500;2023-02-08T12:50:16;15.90;24.90
13211;DHT22;6670;51.53087800;7.23266500;2023-02-08T12:52:53;15.70;23.90
13211;DHT22;6670;51.53087800;7.23266500;2023-02-08T12:55:25;16.00;24.00
13211;DHT22;6670;51.53087800;7.23266500;2023-02-08T12:57:57;15.50;23.20
13211;DHT22;6670;51.53087800;7.23266500;2023-02-08T13:00:28;16.00;23.30
13211;DHT22;6670;51.53087800;7.23266500;2023-02-08T13:03:02;15.10;22.10
13211;DHT22;6670;51.53087800;7.23266500;2023-02-08T13:05:39;16.10;23.50
13211;DHT22;6670;51.53087800;7.23266500;2023-02-08T13:08:28;16.50;23.00
13211;DHT22;6670;51.53087800;7.23266500;2023-02-08T13:10:58;16.70;23.10
13211;DHT22;6670;51.53087800;7.23266500;2023-02-08T13:13:30;16.60;22.70
13211;DHT22;6670;51.53087800;7.23266500;2023-02-08T13:16:04;16.50;22.60
13211;DHT22;6670;51.53087800;7.23266500;2023-02-08T13:18:46;16.50;22.40
13211;DHT22;6670;51.53087800;7.23266500;2023-02-08T13:21:18;16.20;23.00
13211;DHT22;6670;51.53087800;7.23266500;2023-02-08T13:23:49;17.20;22.80
13211;DHT22;6670;51.53087800;7.23266500;2023-02-08T13:26:19;17.40;21.50
13211;DHT22;6670;51.53087800;7.23266500;2023-02-08T13:28:51;17.30;20.40
13211;DHT22;6670;51.53087800;7.23266500;2023-02-08T13:31:21;17.30;20.30
13211;DHT22;6670;51.53087800;7.23266500;2023-02-08T13:33:52;17.40;20.00
13211;DHT22;6670;51.53087800;7.23266500;2023-02-08T13:36:25;17.00;19.10
13211;DHT22;6670;51.53087800;7.23266500;2023-02-08T13:38:56;17.50;20.00
13211;DHT22;6670;51.53087800;7.23266500;2023-02-08T13:41:25;17.50;19.50
13211;DHT22;6670;51.53087800;7.23266500;2023-02-08T13:43:57;17.90;19.80
13211;DHT22;6670;51.53087800;7.23266500;2023-02-08T13:46:35;16.00;20.00
13211;DHT22;6670;51.53087800;7.23266500;2023-02-08T13:49:04;17.60;20.20
13211;DHT22;6670;51.53087800;7.23266500;2023-02-08T13:51:55;17.50;19.30
13211;DHT22;6670;51.53087800;7.23266500;2023-02-08T13:54:33;17.20;18.70
13211;DHT22;6670;51.53087800;7.23266500;2023-02-08T13:57:01;17.50;19.00
13211;DHT22;6670;51.53087800;7.23266500;2023-02-08T13:59:35;17.20;18.30
13211;DHT22;6670;51.53087800;7.23266500;2023-02-08T14:02:24;16.80;19.40
13211;DHT22;6670;51.53087800;7.23266500;2023-02-08T14:04:54;17.70;18.90
13211;DHT22;6670;51.53087800;7.23266500;2023-02-08T14:07:44;17.80;18.20
13211;DHT22;6670;51.53087800;7.23266500;2023-02-08T14:10:33;18.60;18.10
13211;DHT22;6670;51.53087800;7.23266500;2023-02-08T14:13:06;18.20;16.90
13211;DHT22;6670;51.53087800;7.23266500;2023-02-08T14:15:37;16.70;17.30
13211;DHT22;6670;51.53087800;7.23266500;2023-02-08T14:18:21;16.40;17.10
13211;DHT22;6670;51.53087800;7.23266500;2023-02-08T14:21:01;16.30;17.80
13211;DHT22;6670;51.53087800;7.23266500;2023-02-08T14:23:53;17.30;18.50
13211;DHT22;6670;51.53087800;7.23266500;2023-02-08T14:26:27;17.10;17.70
13211;DHT22;6670;51.53087800;7.23266500;2023-02-08T14:28:56;17.40;17.60
13211;DHT22;6670;51.53087800;7.23266500;2023-02-08T14:31:35;17.80;17.40